Time;durP1;ratioP1;P1;durP2;ratioP2;P2;SDS_P1;SDS_P2;PMS_P1;PMS_P2;Temp;Humidity;BMP_temperature;BMP_pressure;BME280_temperature;BME280_humidity;BME280_pressure;Samples;Min_cycle;Max_cycle;Signal;HPM_P1;HPM_P2
2021/03/13 00:00:19;;;;;;;;;;;3.60;99.90;;;;;;5044504;28;20042;-76
2021/03/13 00:02:46;;;;;;;15.50;5.20;;;3.60;99.90;;;;;;5039034;28;19923;-78
2021/03/13 00:05:26;;;;;;;23.70;7.05;;;3.60;99.90;;;;;;5048082;28;20375;-73
2021/03/13 00:07:53;;;;;;;20.48;6.32;;;3.70;99.90;;;;;;5034704;28;20068;-72
2021/03/13 00:10:19;;;;;;;20.77;6.90;;;3.70;99.90;;;;;;5049435;28;20029;-75
2021/03/13 00:12:45;;;;;;;15.52;6.03;;;3.80;99.90;;;;;;5045656;28;20491;-76
2021/03/13 00:15:15;;;;;;;;;;;3.90;99.90;;;;;;5040476;28;20048;-75
2021/03/13 00:17:58;;;;;;;21.67;6.22;;;3.90;99.90;;;;;;5037567;28;19948;-74
2021/03/13 00:20:26;;;;;;;19.80;6.22;;;3.90;99.90;;;;;;5049897;28;20041;-74
2021/03/13 00:22:53;;;;;;;21.55;6.68;;;3.90;99.90;;;;;;5047858;28;20397;-71
2021/03/13 00:25:20;;;;;;;21.23;5.82;;;4.00;99.90;;;;;;5050331;28;20033;-75
2021/03/13 00:27:46;;;;;;;37.83;7.50;;;4.00;99.90;;;;;;5046093;28;20052;-74
2021/03/13 00:30:35;;;;;;;15.93;6.45;;;4.20;99.90;;;;;;5060476;28;20099;-75
2021/03/13 00:33:19;;;;;;;16.23;5.90;;;4.10;99.90;;;;;;5021588;28;20056;-73
2021/03/13 00:35:47;;;;;;;19.33;6.15;;;4.20;99.90;;;;;;5045315;28;20451;-75
2021/03/13 00:38:13;;;;;;;24.25;7.13;;;4.30;99.90;;;;;;5049328;28;20037;-76
2021/03/13 00:40:41;;;;;;;25.33;6.25;;;4.30;99.90;;;;;;5049167;28;20090;-76
2021/03/13 00:43:09;;;;;;;20.15;6.35;;;4.20;99.90;;;;;;5047267;28;20390;-78
2021/03/13 00:45:36;;;;;;;22.90;5.82;;;4.20;99.90;;;;;;5051871;28;20060;-76
2021/03/13 00:48:04;;;;;;;26.67;6.35;;;4.20;99.90;;;;;;5052322;28;20064;-74
2021/03/13 00:50:31;;;;;;;30.17;6.38;;;4.20;99.90;;;;;;5040316;28;20068;-76
2021/03/13 00:52:58;;;;;;;19.80;7.18;;;4.20;99.90;;;;;;5047312;28;20071;-75
2021/03/13 00:55:24;;;;;;;18.17;6.40;;;4.30;99.90;;;;;;5042870;28;20053;-75
2021/03/13 00:57:50;;;;;;;17.48;5.40;;;4.40;99.90;;;;;;5044631;28;20037;-74
2021/03/13 01:00:21;;;;;;;19.13;5.53;;;4.30;99.90;;;;;;5044524;28;20037;-76
2021/03/13 01:02:47;;;;;;;19.65;5.65;;;4.30;99.90;;;;;;5026517;28;20064;-73
2021/03/13 01:05:13;;;;;;;35.53;5.63;;;4.30;99.90;;;;;;5049100;28;20494;-72
2021/03/13 01:07:40;;;;;;;11.68;4.43;;;4.30;99.90;;;;;;5046580;28;20090;-74
2021/03/13 01:10:19;;;;;;;22.45;5.40;;;4.30;99.90;;;;;;5039838;28;20472;-73
2021/03/13 01:12:45;;;;;;;19.40;5.43;;;4.30;99.90;;;;;;5046752;28;20033;-76
2021/03/13 01:15:15;;;;;;;16.50;5.35;;;4.30;99.90;;;;;;5036974;28;20057;-75
2021/03/13 01:17:41;;;;;;;15.60;5.70;;;4.30;99.90;;;;;;5046049;28;20041;-73
2021/03/13 01:20:10;;;;;;;15.43;4.63;;;4.20;99.90;;;;;;5046473;28;20049;-74
2021/03/13 01:22:36;;;;;;;25.92;5.53;;;4.30;99.90;;;;;;5040622;28;20064;-80
2021/03/13 01:25:03;;;;;;;23.60;5.72;;;4.30;99.90;;;;;;5038919;28;20493;-77
2021/03/13 01:27:29;;;;;;;9.82;4.18;;;4.30;99.90;;;;;;5019685;28;20048;-74
2021/03/13 01:29:55;;;;;;;16.67;4.63;;;4.40;99.90;;;;;;5050507;28;20037;-75
2021/03/13 01:32:20;;;;;;;15.88;4.60;;;4.40;99.90;;;;;;5049176;28;20385;-77
2021/03/13 01:34:46;;;;;;;12.57;5.10;;;4.30;99.90;;;;;;5031156;28;20035;-76
2021/03/13 01:37:18;;;;;;;16.25;5.95;;;4.40;99.90;;;;;;5026734;28;20120;-72
2021/03/13 01:39:44;;;;;;;19.90;5.43;;;4.40;99.90;;;;;;5050597;28;20470;-76
2021/03/13 01:42:10;;;;;;;24.95;6.35;;;4.50;99.90;;;;;;5047828;28;20033;-76
2021/03/13 01:44:36;;;;;;;18.65;6.38;;;4.50;99.90;;;;;;5053271;28;20038;-78
2021/03/13 01:47:02;;;;;;;14.90;5.65;;;4.50;99.90;;;;;;5048369;28;20462;-73
2021/03/13 01:49:31;;;;;;;16.25;6.95;;;4.50;99.90;;;;;;5053772;28;20049;-75
2021/03/13 01:51:58;;;;;;;22.00;6.03;;;4.50;99.90;;;;;;5044986;28;20091;-77
2021/03/13 01:54:25;;;;;;;25.92;7.07;;;4.50;99.90;;;;;;5051704;28;20032;-76
2021/03/13 01:56:51;;;;;;;19.88;6.85;;;4.60;99.90;;;;;;5045644;28;20063;-75
2021/03/13 01:59:19;;;;;;;23.92;6.80;;;4.70;99.90;;;;;;5053703;28;20441;-77
2021/03/13 02:01:45;;;;;;;17.75;6.30;;;4.70;99.90;;;;;;5049150;28;20044;-74
2021/03/13 02:04:17;;;;;;;20.88;7.13;;;4.70;99.90;;;;;;5032227;28;20117;-79
2021/03/13 02:06:57;;;;;;;19.80;7.15;;;4.70;99.90;;;;;;5051027;28;20048;-76
2021/03/13 02:09:32;;;;;;;16.45;6.75;;;4.70;99.90;;;;;;5042628;28;20044;-76
2021/03/13 02:12:36;;;;;;;21.63;7.85;;;4.90;99.90;;;;;;5038411;28;20060;-75
2021/03/13 02:15:17;;;;;;;22.60;7.90;;;4.80;99.90;;;;;;5033328;28;20072;-76
2021/03/13 02:17:52;;;;;;;16.88;7.50;;;4.80;99.90;;;;;;5052990;28;20036;-76
2021/03/13 02:20:49;;;;;;;27.27;7.63;;;4.90;99.90;;;;;;5043674;28;20049;-77
2021/03/13 02:23:19;;;;;;;20.52;7.65;;;5.00;99.90;;;;;;5049402;28;20295;-76
2021/03/13 02:26:12;;;;;;;16.20;7.13;;;5.00;99.90;;;;;;5052851;28;20041;-75
2021/03/13 02:29:01;;;;;;;21.02;6.88;;;5.00;99.90;;;;;;5053197;28;20514;-76
2021/03/13 02:31:27;;;;;;;20.73;7.82;;;5.10;99.90;;;;;;5004108;28;20532;-76
2021/03/13 02:33:55;;;;;;;;;;;5.10;99.90;;;;;;5051009;28;20113;-79
2021/03/13 02:36:21;;;;;;;17.25;8.25;;;5.10;99.90;;;;;;5050860;28;19921;-74
2021/03/13 02:38:55;;;;;;;17.80;8.25;;;5.10;99.90;;;;;;5041314;28;20032;-73
2021/03/13 02:41:27;;;;;;;19.00;7.63;;;5.20;99.90;;;;;;5044867;28;20112;-79
2021/03/13 02:44:01;;;;;;;18.52;7.53;;;5.20;99.90;;;;;;5046307;28;20453;-76
2021/03/13 02:46:27;;;;;;;18.48;6.75;;;5.20;99.90;;;;;;5048754;28;20029;-77
2021/03/13 02:48:55;;;;;;;17.27;7.32;;;5.20;99.90;;;;;;5045691;28;20044;-75
2021/03/13 02:51:27;;;;;;;17.90;7.25;;;5.20;99.90;;;;;;5034828;28;20479;-75
2021/03/13 02:53:55;;;;;;;14.43;6.90;;;5.20;99.90;;;;;;5047053;28;20036;-77
2021/03/13 02:56:23;;;;;;;24.42;7.90;;;5.20;99.90;;;;;;5043209;28;20052;-77
2021/03/13 02:58:52;;;;;;;18.92;6.70;;;5.30;99.90;;;;;;5033333;28;20060;-72
2021/03/13 03:01:20;;;;;;;20.38;7.03;;;5.30;99.90;;;;;;5051951;28;20478;-72
2021/03/13 03:03:51;;;;;;;20.83;6.68;;;5.30;99.90;;;;;;5049545;28;20108;-75
2021/03/13 03:06:21;;;;;;;19.40;7.03;;;5.40;99.90;;;;;;5050041;28;20077;-73
2021/03/13 03:08:47;;;;;;;17.45;6.97;;;5.30;99.90;;;;;;5054720;28;20128;-72
2021/03/13 03:11:18;;;;;;;21.45;6.97;;;5.30;99.90;;;;;;5051014;28;20142;-74
2021/03/13 03:13:45;;;;;;;16.60;6.22;;;5.40;99.90;;;;;;5042834;28;20116;-74
2021/03/13 03:16:11;;;;;;;19.25;6.90;;;5.40;99.90;;;;;;5032176;28;20037;-73
2021/03/13 03:18:39;;;;;;;17.92;7.13;;;5.40;99.90;;;;;;5034814;28;20037;-74
2021/03/13 03:21:06;;;;;;;18.55;6.82;;;5.40;99.90;;;;;;5041061;28;20048;-76
2021/03/13 03:23:33;;;;;;;16.90;6.78;;;5.40;99.90;;;;;;5050852;28;20051;-73
2021/03/13 03:25:59;;;;;;;18.17;7.32;;;5.40;99.90;;;;;;5046117;28;20029;-75
2021/03/13 03:28:25;;;;;;;15.73;6.15;;;5.50;99.90;;;;;;5050126;28;20044;-74
2021/03/13 03:30:54;;;;;;;16.20;6.80;;;5.60;99.90;;;;;;5030051;28;20043;-75
2021/03/13 03:33:20;;;;;;;16.13;6.57;;;5.40;99.90;;;;;;5046113;28;20037;-77
2021/03/13 03:35:46;;;;;;;18.00;6.10;;;5.40;99.90;;;;;;5040846;28;20200;-77
2021/03/13 03:38:13;;;;;;;23.70;7.25;;;5.40;99.90;;;;;;5033569;28;20448;-74
2021/03/13 03:40:41;;;;;;;12.02;6.47;;;5.40;99.90;;;;;;5050124;28;20110;-78
2021/03/13 03:43:12;;;;;;;14.55;6.30;;;5.40;99.90;;;;;;5050131;28;20371;-80
2021/03/13 03:45:40;;;;;;;21.63;7.05;;;5.40;99.90;;;;;;5040151;28;20033;-76
2021/03/13 03:48:09;;;;;;;15.93;7.65;;;5.30;99.90;;;;;;5051219;28;20045;-80
2021/03/13 03:50:36;;;;;;;13.63;7.00;;;5.30;99.90;;;;;;5046449;28;20048;-77
2021/03/13 03:53:06;;;;;;;19.20;7.10;;;5.30;99.90;;;;;;5042788;28;20057;-79
2021/03/13 03:55:35;;;;;;;12.45;6.57;;;5.20;99.90;;;;;;5047917;28;20060;-76
2021/03/13 03:58:02;;;;;;;16.58;7.07;;;5.30;99.90;;;;;;5050360;28;20094;-76
2021/03/13 04:00:28;;;;;;;14.25;6.57;;;5.30;99.90;;;;;;5040237;28;20184;-75
2021/03/13 04:02:58;;;;;;;13.15;7.15;;;5.30;99.90;;;;;;5051588;28;20115;-76
2021/03/13 04:05:26;;;;;;;13.90;6.43;;;5.30;99.90;;;;;;5038573;28;20451;-76
2021/03/13 04:07:53;;;;;;;12.35;6.15;;;5.20;99.90;;;;;;5044858;28;20034;-76
2021/03/13 04:10:20;;;;;;;20.48;7.15;;;5.30;99.90;;;;;;5045307;28;20065;-74
2021/03/13 04:12:46;;;;;;;20.48;7.10;;;5.20;99.90;;;;;;5044574;28;20526;-74
2021/03/13 04:15:13;;;;;;;9.27;6.20;;;5.20;99.90;;;;;;5042899;28;20496;-79
2021/03/13 04:17:39;;;;;;;9.70;5.78;;;5.20;99.90;;;;;;5042355;28;20038;-76
2021/03/13 04:20:07;;;;;;;9.70;5.00;;;5.20;99.90;;;;;;5044122;28;20121;-74
2021/03/13 04:22:34;;;;;;;8.50;4.03;;;5.20;99.90;;;;;;5040928;28;20402;-74
2021/03/13 04:25:05;;;;;;;10.02;4.65;;;5.20;99.90;;;;;;5021850;28;20075;-75
2021/03/13 04:27:31;;;;;;;8.05;4.35;;;5.10;99.90;;;;;;5031044;28;20048;-76
2021/03/13 04:29:57;;;;;;;6.88;4.22;;;5.10;99.90;;;;;;5049934;28;20539;-74
2021/03/13 04:32:24;;;;;;;8.55;3.88;;;5.00;99.90;;;;;;5049406;28;20112;-76
2021/03/13 04:34:51;;;;;;;10.10;3.92;;;5.00;99.90;;;;;;5047934;28;20032;-74
2021/03/13 04:37:20;;;;;;;7.15;4.38;;;4.90;99.90;;;;;;5049176;28;20045;-76
2021/03/13 04:39:47;;;;;;;6.95;3.90;;;5.50;99.90;;;;;;5048871;28;20065;-73
2021/03/13 04:42:13;;;;;;;5.97;3.83;;;4.90;99.90;;;;;;5039627;28;20041;-76
2021/03/13 04:44:40;;;;;;;5.45;3.90;;;4.90;99.90;;;;;;5013923;28;20049;-72
2021/03/13 04:47:06;;;;;;;10.70;4.00;;;4.80;99.90;;;;;;5039018;28;20136;-74
2021/03/13 04:49:32;;;;;;;6.15;3.25;;;4.80;99.90;;;;;;5047236;28;20501;-76
2021/03/13 04:52:00;;;;;;;7.88;3.78;;;4.80;99.90;;;;;;5049180;28;20549;-76
2021/03/13 04:54:27;;;;;;;6.38;3.53;;;4.70;99.90;;;;;;5045274;28;20060;-76
2021/03/13 04:56:53;;;;;;;8.25;3.05;;;4.80;99.90;;;;;;5037840;28;20064;-75
2021/03/13 04:59:20;;;;;;;4.72;3.00;;;4.80;99.90;;;;;;5049247;28;20039;-75
2021/03/13 05:01:45;;;;;;;;;;;4.80;99.90;;;;;;5049484;28;20128;-76
2021/03/13 05:04:11;;;;;;;5.82;3.72;;;4.80;99.90;;;;;;5049844;28;20376;-80
2021/03/13 05:06:37;;;;;;;6.45;3.33;;;4.80;99.90;;;;;;5048036;28;20056;-78
2021/03/13 05:09:03;;;;;;;5.07;3.63;;;4.80;99.90;;;;;;5050260;28;20048;-75
2021/03/13 05:11:29;;;;;;;11.18;3.92;;;4.80;99.90;;;;;;5027598;28;20044;-74
2021/03/13 05:13:55;;;;;;;6.72;3.63;;;4.80;99.90;;;;;;5053518;28;20037;-75
2021/03/13 05:16:21;;;;;;;7.82;4.10;;;5.20;99.90;;;;;;5053532;28;20486;-75
2021/03/13 05:18:47;;;;;;;7.30;5.00;;;4.90;99.90;;;;;;5055568;28;20047;-80
2021/03/13 05:21:13;;;;;;;8.73;4.40;;;4.90;99.90;;;;;;5051340;28;20040;-73
2021/03/13 05:23:41;;;;;;;6.95;3.47;;;6.10;99.90;;;;;;5043533;28;20041;-77
2021/03/13 05:26:07;;;;;;;6.50;3.83;;;4.90;99.90;;;;;;5034565;28;20169;-76
2021/03/13 05:28:33;;;;;;;5.88;4.35;;;5.00;99.90;;;;;;5056122;28;20128;-76
2021/03/13 05:30:59;;;;;;;11.73;4.70;;;5.10;99.90;;;;;;5055918;28;20375;-76
2021/03/13 05:33:25;;;;;;;5.70;4.28;;;5.10;99.90;;;;;;5025020;28;20045;-73
2021/03/13 05:35:51;;;;;;;6.25;4.07;;;4.80;99.90;;;;;;5048323;28;20106;-76
2021/03/13 05:38:17;;;;;;;8.15;3.95;;;5.10;99.90;;;;;;5041061;28;20456;-77
2021/03/13 05:40:43;;;;;;;6.35;3.90;;;5.20;99.90;;;;;;5068701;28;20042;-77
2021/03/13 05:43:12;;;;;;;6.00;4.47;;;5.20;99.90;;;;;;5038234;28;20041;-77
2021/03/13 05:45:39;;;;;;;7.25;4.00;;;5.20;99.90;;;;;;5048546;28;20048;-80
2021/03/13 05:48:07;;;;;;;8.30;4.88;;;5.20;99.90;;;;;;5053683;28;20037;-80
2021/03/13 05:50:33;;;;;;;6.43;4.28;;;5.20;99.90;;;;;;5049798;28;20482;-76
2021/03/13 05:53:03;;;;;;;7.68;4.60;;;5.20;99.90;;;;;;5053087;28;20390;-79
2021/03/13 05:55:31;;;;;;;8.43;4.38;;;5.20;99.90;;;;;;5053913;28;20143;-77
2021/03/13 05:57:58;;;;;;;7.10;4.80;;;5.30;99.90;;;;;;5036864;28;20128;-79
2021/03/13 06:00:24;;;;;;;8.45;4.85;;;5.30;99.90;;;;;;5032366;28;20053;-79
2021/03/13 06:02:50;;;;;;;6.20;4.45;;;5.40;99.90;;;;;;5047195;28;20095;-78
2021/03/13 06:05:16;;;;;;;8.05;4.32;;;5.40;99.90;;;;;;5052806;28;20489;-76
2021/03/13 06:07:43;;;;;;;6.47;3.95;;;5.40;99.90;;;;;;5049685;28;20031;-80
2021/03/13 06:10:12;;;;;;;9.65;4.88;;;5.50;99.90;;;;;;5046137;28;20045;-76
2021/03/13 06:12:37;;;;;;;10.48;4.68;;;5.50;99.90;;;;;;5044724;28;20048;-79
2021/03/13 06:15:05;;;;;;;6.65;4.38;;;5.50;99.90;;;;;;5045025;28;20033;-76
2021/03/13 06:17:54;;;;;;;5.95;4.20;;;5.60;99.90;;;;;;5052313;28;20041;-75
2021/03/13 06:20:35;;;;;;;6.60;4.65;;;5.60;99.90;;;;;;5028375;28;20403;-77
2021/03/13 06:23:08;;;;;;;6.45;3.97;;;5.60;99.90;;;;;;5029008;28;20040;-75
2021/03/13 06:25:35;;;;;;;8.48;4.45;;;6.00;99.90;;;;;;5041705;28;20041;-74
2021/03/13 06:28:10;;;;;;;8.07;3.80;;;5.70;99.90;;;;;;5049297;28;20129;-80
2021/03/13 06:30:44;;;;;;;7.85;4.38;;;5.80;99.90;;;;;;5045428;28;20045;-74
2021/03/13 06:33:31;;;;;;;5.45;3.55;;;5.90;99.90;;;;;;5050847;28;20056;-75
2021/03/13 06:36:02;;;;;;;4.57;3.80;;;5.90;99.90;;;;;;5040864;28;20044;-77
2021/03/13 06:38:29;;;;;;;7.25;4.07;;;5.90;99.90;;;;;;5035040;28;20512;-80
2021/03/13 06:40:57;;;;;;;6.13;4.05;;;6.00;99.90;;;;;;5034322;28;20147;-79
2021/03/13 06:43:27;;;;;;;5.05;3.75;;;6.00;99.90;;;;;;5049952;28;20041;-79
2021/03/13 06:46:05;;;;;;;4.57;2.92;;;6.00;99.90;;;;;;5050206;28;20043;-78
2021/03/13 06:48:32;;;;;;;3.75;2.70;;;6.10;99.90;;;;;;5043562;28;20045;-78
2021/03/13 06:51:39;;;;;;;5.85;2.83;;;6.10;99.90;;;;;;5028252;28;20037;-77
2021/03/13 06:54:13;;;;;;;4.87;2.80;;;6.10;99.90;;;;;;4954944;28;20042;-76
2021/03/13 06:56:59;;;;;;;5.45;3.05;;;6.10;99.90;;;;;;4970101;28;20328;-78
2021/03/13 06:59:36;;;;;;;4.40;2.95;;;6.20;99.90;;;;;;5024644;28;20049;-76
2021/03/13 07:02:10;;;;;;;3.58;2.63;;;6.20;99.90;;;;;;5055123;28;20036;-78
2021/03/13 07:04:43;;;;;;;3.92;2.33;;;6.30;99.90;;;;;;5048661;28;20098;-81
2021/03/13 07:07:12;;;;;;;4.10;2.50;;;6.20;99.90;;;;;;5045603;28;20144;-77
2021/03/13 07:09:43;;;;;;;3.63;2.40;;;6.20;99.90;;;;;;5049266;28;20029;-79
2021/03/13 07:12:26;;;;;;;3.33;2.20;;;6.20;99.90;;;;;;5049570;28;20057;-76
2021/03/13 07:14:53;;;;;;;5.20;1.90;;;6.10;99.90;;;;;;5042500;28;20049;-81
2021/03/13 07:17:19;;;;;;;3.10;1.95;;;6.00;99.90;;;;;;5049112;28;20194;-77
2021/03/13 07:19:45;;;;;;;3.13;1.60;;;5.80;99.90;;;;;;5050162;28;20143;-78
2021/03/13 07:22:13;;;;;;;3.17;1.83;;;5.50;99.90;;;;;;5046549;28;20117;-77
2021/03/13 07:24:43;;;;;;;6.95;2.10;;;5.50;99.90;;;;;;5050550;28;20041;-77
2021/03/13 07:27:11;;;;;;;3.38;1.73;;;5.50;99.90;;;;;;5049269;28;20052;-76
2021/03/13 07:29:44;;;;;;;4.38;1.60;;;5.30;99.90;;;;;;5048544;28;20041;-78
2021/03/13 07:32:15;;;;;;;5.78;1.67;;;5.30;99.90;;;;;;5047545;28;20041;-83
2021/03/13 07:34:45;;;;;;;4.00;1.75;;;5.30;99.90;;;;;;5022595;28;20041;-79
2021/03/13 07:37:17;;;;;;;3.70;1.95;;;5.20;99.90;;;;;;5047631;28;20095;-79
2021/03/13 07:39:47;;;;;;;6.53;1.95;;;5.30;99.90;;;;;;5049452;28;20117;-78
2021/03/13 07:42:20;;;;;;;6.07;1.92;;;5.20;99.90;;;;;;5048946;28;20033;-82
2021/03/13 07:44:48;;;;;;;10.20;2.92;;;5.30;99.90;;;;;;5024760;28;20041;-75
2021/03/13 07:47:16;;;;;;;6.43;2.20;;;5.40;99.90;;;;;;5026530;28;20033;-78
2021/03/13 07:49:43;;;;;;;6.93;3.00;;;5.50;99.90;;;;;;5035310;28;20106;-78
2021/03/13 07:52:11;;;;;;;9.68;2.60;;;5.70;99.90;;;;;;5028015;28;20045;-76
2021/03/13 07:54:43;;;;;;;8.20;4.10;;;5.90;99.90;;;;;;5045503;28;20033;-81
2021/03/13 07:57:11;;;;;;;9.73;3.38;;;6.20;99.90;;;;;;5054605;28;20135;-78
2021/03/13 07:59:45;;;;;;;10.95;2.45;;;6.40;99.90;;;;;;5049148;28;20072;-80
2021/03/13 08:02:29;;;;;;;7.78;2.85;;;6.40;99.90;;;;;;5024667;28;20036;-79
2021/03/13 08:04:56;;;;;;;11.15;3.75;;;6.60;99.90;;;;;;5014876;28;20135;-79
2021/03/13 08:07:26;;;;;;;9.27;2.65;;;6.70;99.90;;;;;;5045990;28;20047;-76
2021/03/13 08:09:52;;;;;;;7.65;3.00;;;6.80;99.90;;;;;;5019084;28;20044;-75
2021/03/13 08:12:40;;;;;;;9.15;2.85;;;6.70;99.90;;;;;;5049509;28;20044;-75
2021/03/13 08:15:32;;;;;;;13.15;3.55;;;6.80;99.90;;;;;;5047924;28;20037;-76
2021/03/13 08:17:59;;;;;;;10.20;3.25;;;6.90;99.90;;;;;;5033189;28;20037;-75
2021/03/13 08:20:35;;;;;;;13.45;3.95;;;7.00;99.90;;;;;;5054612;28;20475;-75
2021/03/13 08:23:19;;;;;;;11.05;3.75;;;7.10;99.90;;;;;;5030981;28;20538;-75
2021/03/13 08:25:53;;;;;;;13.65;3.83;;;7.30;99.90;;;;;;5025935;28;20036;-76
2021/03/13 08:28:58;;;;;;;11.50;3.20;;;7.20;99.90;;;;;;5052266;28;20040;-75
2021/03/13 08:31:23;;;;;;;9.55;3.38;;;7.20;99.90;;;;;;4967609;28;20062;-77
2021/03/13 08:33:52;;;;;;;10.13;3.45;;;7.20;99.90;;;;;;4960379;28;20043;-75
2021/03/13 08:36:20;;;;;;;8.70;3.63;;;7.20;99.90;;;;;;4991236;28;20049;-75
2021/03/13 08:38:57;;;;;;;11.38;4.05;;;7.10;99.90;;;;;;5048469;28;20033;-76
2021/03/13 08:41:41;;;;;;;16.40;4.00;;;7.10;99.90;;;;;;5046800;28;20098;-76
2021/03/13 08:44:26;;;;;;;12.35;3.60;;;7.10;99.90;;;;;;5026874;28;20029;-75
2021/03/13 08:47:00;;;;;;;15.48;4.97;;;7.10;99.90;;;;;;5026519;28;20045;-77
2021/03/13 08:49:27;;;;;;;15.02;3.88;;;7.20;99.90;;;;;;5037898;28;20033;-76
2021/03/13 08:52:08;;;;;;;16.30;4.05;;;7.20;99.90;;;;;;5033511;28;20494;-78
2021/03/13 08:54:40;;;;;;;17.98;5.40;;;7.30;99.90;;;;;;5048555;28;20041;-77
2021/03/13 08:57:06;;;;;;;11.43;4.28;;;7.40;99.90;;;;;;5035464;28;20084;-77
2021/03/13 08:59:34;;;;;;;12.27;3.92;;;7.60;99.90;;;;;;5031510;28;20048;-76
2021/03/13 09:02:11;;;;;;;12.98;4.57;;;7.60;99.90;;;;;;5037025;28;20099;-77
2021/03/13 09:04:38;;;;;;;12.77;4.20;;;7.50;99.90;;;;;;5044800;28;20115;-75
2021/03/13 09:07:06;;;;;;;11.45;3.92;;;7.50;99.90;;;;;;5044678;28;20052;-74
2021/03/13 09:09:34;;;;;;;18.77;5.05;;;7.60;99.90;;;;;;5049257;28;20094;-81
2021/03/13 09:12:07;;;;;;;13.02;4.63;;;7.90;99.90;;;;;;5045352;28;20033;-76
2021/03/13 09:14:35;;;;;;;12.40;3.55;;;7.60;99.90;;;;;;5040557;28;20049;-77
2021/03/13 09:17:08;;;;;;;10.65;4.05;;;7.60;99.90;;;;;;5036362;28;20539;-77
2021/03/13 09:19:34;;;;;;;11.98;4.63;;;7.70;99.90;;;;;;5043142;28;20041;-78
2021/03/13 09:22:05;;;;;;;8.68;4.35;;;7.80;99.90;;;;;;5049642;28;20598;-79
2021/03/13 09:24:31;;;;;;;9.93;3.50;;;7.90;99.90;;;;;;5039290;28;20049;-75
2021/03/13 09:26:59;;;;;;;9.40;3.72;;;7.90;99.90;;;;;;5042625;28;20037;-79
2021/03/13 09:29:35;;;;;;;12.95;3.58;;;7.90;99.90;;;;;;5038238;28;20041;-76
2021/03/13 09:32:05;;;;;;;11.02;3.97;;;7.90;99.90;;;;;;5041379;28;20067;-78
2021/03/13 09:34:33;;;;;;;10.90;3.65;;;7.90;99.90;;;;;;5043749;28;20032;-74
2021/03/13 09:37:07;;;;;;;12.77;3.53;;;8.00;99.90;;;;;;5011673;28;20083;-78
2021/03/13 09:39:40;;;;;;;12.05;3.83;;;8.00;99.90;;;;;;5024241;28;20389;-76
2021/03/13 09:42:13;;;;;;;10.65;3.17;;;8.00;99.90;;;;;;5004650;28;20046;-76
2021/03/13 09:44:58;;;;;;;9.52;3.72;;;8.00;99.90;;;;;;5047099;28;20065;-77
2021/03/13 09:47:33;;;;;;;9.00;3.80;;;8.10;99.90;;;;;;5041233;28;20506;-76
2021/03/13 09:50:02;;;;;;;14.48;4.30;;;8.20;99.90;;;;;;5038958;28;20045;-76
2021/03/13 09:52:48;;;;;;;17.33;3.85;;;8.20;99.90;;;;;;5049577;28;20155;-77
2021/03/13 09:55:25;;;;;;;12.38;3.70;;;8.10;99.90;;;;;;5047689;28;20041;-79
2021/03/13 09:57:52;;;;;;;;;;;8.00;99.90;;;;;;5049890;28;20389;-78
2021/03/13 10:00:20;;;;;;;16.30;3.88;;;8.00;99.90;;;;;;5052230;28;20031;-76
2021/03/13 10:02:47;;;;;;;11.50;4.18;;;8.10;99.10;;;;;;5028369;28;20044;-77
2021/03/13 10:05:15;;;;;;;11.20;3.30;;;8.10;96.30;;;;;;5049925;28;20045;-76
2021/03/13 10:07:44;;;;;;;9.40;3.20;;;8.10;94.20;;;;;;5050144;28;20061;-78
2021/03/13 10:10:13;;;;;;;5.90;2.45;;;8.00;93.40;;;;;;5056273;28;20045;-77
2021/03/13 10:12:45;;;;;;;10.75;2.90;;;7.90;92.60;;;;;;5045439;28;20121;-76
2021/03/13 10:15:21;;;;;;;8.70;3.20;;;7.90;91.90;;;;;;5037019;28;20120;-77
2021/03/13 10:17:56;;;;;;;;;;;8.00;90.20;;;;;;5047399;28;20485;-78
2021/03/13 10:20:49;;;;;;;6.10;2.90;;;8.10;91.20;;;;;;5047607;28;20500;-74
2021/03/13 10:23:22;;;;;;;12.32;3.83;;;8.30;93.90;;;;;;5044252;28;20489;-74
2021/03/13 10:25:59;;;;;;;13.50;3.90;;;8.50;94.80;;;;;;5023598;28;20095;-78
2021/03/13 10:28:37;;;;;;;13.10;3.97;;;8.60;95.30;;;;;;5033191;28;20037;-76
2021/03/13 10:31:19;;;;;;;11.93;3.55;;;8.80;97.00;;;;;;5037796;28;20045;-76
2021/03/13 10:33:49;;;;;;;9.18;3.63;;;8.70;95.90;;;;;;5052417;28;20033;-80
2021/03/13 10:36:17;;;;;;;9.80;3.55;;;8.60;97.40;;;;;;5044645;28;20037;-75
2021/03/13 10:38:48;;;;;;;9.38;3.60;;;8.50;96.80;;;;;;5043946;28;20077;-82
2021/03/13 10:41:20;;;;;;;10.40;3.83;;;8.60;96.70;;;;;;5052275;28;20033;-76
2021/03/13 10:43:46;;;;;;;9.15;3.10;;;8.50;96.80;;;;;;5038264;28;20048;-76
2021/03/13 10:46:21;;;;;;;8.27;3.33;;;8.50;97.10;;;;;;5033056;28;20044;-75
2021/03/13 10:48:47;;;;;;;12.07;3.53;;;8.40;96.30;;;;;;5036541;28;20045;-77
2021/03/13 10:51:41;;;;;;;11.63;4.13;;;8.40;96.20;;;;;;5040162;28;20044;-78
2021/03/13 10:54:26;;;;;;;13.65;4.30;;;8.20;96.90;;;;;;5031777;28;20045;-77
2021/03/13 10:56:52;;;;;;;10.57;3.63;;;7.80;97.90;;;;;;5046391;28;20080;-76
2021/03/13 10:59:30;;;;;;;10.20;4.05;;;7.50;99.50;;;;;;5030342;28;20065;-76
2021/03/13 11:01:57;;;;;;;11.55;3.90;;;7.30;99.90;;;;;;5031634;28;20461;-79
2021/03/13 11:04:22;;;;;;;11.80;4.07;;;7.10;99.90;;;;;;5050341;28;20158;-83
2021/03/13 11:06:53;;;;;;;14.65;4.25;;;7.00;99.90;;;;;;5047456;28;20443;-76
2021/03/13 11:09:20;;;;;;;13.02;3.70;;;7.20;99.90;;;;;;5033777;28;20041;-77
2021/03/13 11:11:46;;;;;;;13.02;3.58;;;7.20;99.90;;;;;;5048481;28;20043;-77
2021/03/13 11:14:11;;;;;;;12.95;3.92;;;7.20;99.90;;;;;;5029080;28;20024;-79
2021/03/13 11:16:37;;;;;;;13.13;4.07;;;7.20;99.90;;;;;;5038631;28;20040;-73
2021/03/13 11:19:04;;;;;;;;;;;7.30;99.90;;;;;;5035568;28;20482;-76
2021/03/13 11:21:30;;;;;;;9.13;3.78;;;7.40;99.30;;;;;;5035267;28;19963;-76
2021/03/13 11:23:56;;;;;;;7.43;2.53;;;7.60;98.80;;;;;;5051773;28;20033;-76
2021/03/13 11:26:23;;;;;;;;;;;7.80;98.90;;;;;;5051214;28;20206;-75
2021/03/13 11:28:50;;;;;;;9.13;2.67;;;7.90;98.40;;;;;;5037250;28;20003;-75
2021/03/13 11:31:16;;;;;;;11.68;2.88;;;7.90;98.30;;;;;;5019687;28;20425;-75
2021/03/13 11:33:42;;;;;;;;;;;7.80;98.80;;;;;;5030420;28;20043;-72
2021/03/13 11:36:08;;;;;;;11.10;4.00;;;7.90;97.50;;;;;;5050586;28;19916;-74
2021/03/13 11:38:36;;;;;;;7.38;3.05;;;8.00;97.40;;;;;;5033460;28;20050;-79
2021/03/13 11:41:04;;;;;;;8.88;3.00;;;8.20;94.80;;;;;;5040757;28;20065;-77
2021/03/13 11:43:31;;;;;;;11.25;3.35;;;8.20;95.20;;;;;;5024302;28;20059;-80
2021/03/13 11:45:57;;;;;;;9.77;2.80;;;8.40;96.10;;;;;;5049021;28;20551;-77
2021/03/13 11:48:22;;;;;;;8.32;2.85;;;8.70;95.70;;;;;;5050474;28;20053;-78
2021/03/13 11:50:49;;;;;;;12.00;3.72;;;8.60;94.80;;;;;;5039057;28;20033;-79
2021/03/13 11:53:18;;;;;;;8.45;2.88;;;8.70;93.60;;;;;;5037522;28;20037;-76
2021/03/13 11:55:45;;;;;;;8.25;2.72;;;8.60;93.00;;;;;;5044935;28;20037;-76
2021/03/13 11:58:11;;;;;;;8.45;2.90;;;8.50;93.60;;;;;;5031772;28;20059;-77
2021/03/13 12:00:38;;;;;;;10.13;4.20;;;8.50;93.90;;;;;;5033447;28;20045;-76
2021/03/13 12:03:04;;;;;;;10.82;2.95;;;8.50;93.00;;;;;;5050280;28;20037;-73
2021/03/13 12:05:30;;;;;;;9.80;3.70;;;8.50;93.20;;;;;;5050893;28;20401;-78
2021/03/13 12:07:56;;;;;;;7.72;3.00;;;8.50;92.90;;;;;;5050481;28;20429;-79
2021/03/13 12:10:22;;;;;;;9.48;3.78;;;8.60;92.50;;;;;;5029909;28;20042;-77
2021/03/13 12:12:48;;;;;;;7.90;3.17;;;8.70;93.00;;;;;;5013540;28;20365;-75
2021/03/13 12:15:14;;;;;;;8.68;3.83;;;8.80;92.90;;;;;;5045098;28;20037;-79
2021/03/13 12:17:40;;;;;;;8.55;2.90;;;8.70;91.20;;;;;;5050931;28;20032;-75
2021/03/13 12:20:08;;;;;;;5.03;2.63;;;8.70;91.00;;;;;;5017190;28;20144;-74
2021/03/13 12:22:35;;;;;;;10.00;3.00;;;8.70;91.70;;;;;;5049376;28;20045;-77
2021/03/13 12:25:02;;;;;;;8.07;3.20;;;8.70;90.70;;;;;;5047352;28;20071;-75
2021/03/13 12:27:28;;;;;;;7.38;3.08;;;8.70;90.80;;;;;;5044367;28;20118;-78
2021/03/13 12:29:53;;;;;;;9.43;3.33;;;8.60;91.00;;;;;;5034076;28;20398;-78
2021/03/13 12:32:20;;;;;;;9.32;2.88;;;8.50;92.50;;;;;;5032615;28;20457;-76
2021/03/13 12:34:46;;;;;;;9.82;2.83;;;8.10;94.30;;;;;;5048325;28;20490;-76
2021/03/13 12:37:12;;;;;;;5.93;2.53;;;7.90;95.60;;;;;;5048027;28;20053;-78
2021/03/13 12:39:38;;;;;;;;;;;8.00;95.00;;;;;;5035258;28;20068;-77
2021/03/13 12:42:04;;;;;;;7.72;2.80;;;8.00;94.90;;;;;;5031797;28;19960;-77
2021/03/13 12:44:30;;;;;;;9.43;3.35;;;8.10;94.40;;;;;;5049289;28;20083;-78
2021/03/13 12:46:56;;;;;;;9.45;3.05;;;8.10;94.40;;;;;;5047976;28;20041;-80
2021/03/13 12:49:22;;;;;;;6.55;2.53;;;8.10;95.40;;;;;;5017570;28;20121;-74
2021/03/13 12:51:48;;;;;;;12.70;3.22;;;7.90;97.00;;;;;;5026563;28;20116;-72
2021/03/13 12:54:14;;;;;;;10.77;3.40;;;7.80;98.60;;;;;;5047043;28;20033;-77
2021/03/13 12:56:41;;;;;;;8.52;3.08;;;7.90;99.80;;;;;;5005632;28;20045;-76
2021/03/13 12:59:07;;;;;;;6.57;2.30;;;8.00;98.90;;;;;;5029496;28;20463;-74
2021/03/13 13:01:32;;;;;;;7.25;2.50;;;8.20;98.10;;;;;;5046367;28;20037;-80
2021/03/13 13:04:02;;;;;;;6.38;2.53;;;8.40;97.70;;;;;;5025224;28;20420;-74
2021/03/13 13:06:28;;;;;;;9.55;2.60;;;8.50;97.50;;;;;;5021327;28;20103;-77
2021/03/13 13:08:55;;;;;;;5.38;2.53;;;8.50;96.20;;;;;;5032892;28;20029;-78